Time;durP1;ratioP1;P1;durP2;ratioP2;P2;SDS_P1;SDS_P2;PMS_P1;PMS_P2;Temp;Humidity;BMP_temperature;BMP_pressure;BME280_temperature;BME280_humidity;BME280_pressure;Samples;Min_cycle;Max_cycle;Signal;HPM_P1;HPM_P2
2022/11/07 00:01:47;;;;;;;1.98;1.50;;;17.00;59.30;;;;;;5052801;28;20187;-69
2022/11/07 00:04:12;;;;;;;2.15;1.55;;;16.90;59.30;;;;;;5053276;28;20186;-69
2022/11/07 00:06:38;;;;;;;2.08;1.60;;;16.90;59.40;;;;;;5053674;28;20171;-69
2022/11/07 00:09:03;;;;;;;2.47;1.90;;;16.90;59.40;;;;;;5052594;28;20206;-68
2022/11/07 00:11:29;;;;;;;3.40;1.80;;;16.90;59.50;;;;;;5053351;28;20225;-68
2022/11/07 00:13:54;;;;;;;2.70;1.60;;;16.90;59.50;;;;;;5053221;28;20229;-68
2022/11/07 00:16:20;;;;;;;3.08;1.73;;;16.90;59.60;;;;;;5052064;28;20230;-69
2022/11/07 00:18:45;;;;;;;2.50;1.65;;;16.80;59.50;;;;;;5053199;28;20246;-68
2022/11/07 00:21:11;;;;;;;3.25;1.75;;;16.80;59.60;;;;;;5053237;28;20163;-67
2022/11/07 00:23:39;;;;;;;3.33;1.80;;;16.80;59.60;;;;;;5052617;28;20262;-68
2022/11/07 00:26:07;;;;;;;2.55;2.05;;;16.80;59.70;;;;;;5052904;28;20213;-68
2022/11/07 00:28:36;;;;;;;3.28;1.80;;;16.80;59.70;;;;;;5053162;28;20225;-68
2022/11/07 00:31:01;;;;;;;2.42;1.80;;;16.80;59.80;;;;;;5052144;28;20175;-69
2022/11/07 00:33:27;;;;;;;3.10;1.70;;;16.80;59.80;;;;;;5052914;28;20225;-69
2022/11/07 00:35:52;;;;;;;2.75;1.58;;;16.80;59.80;;;;;;5052471;28;20669;-69
2022/11/07 00:38:18;;;;;;;3.45;2.00;;;16.80;59.90;;;;;;5052906;28;20186;-68
2022/11/07 00:40:53;;;;;;;4.20;1.73;;;16.70;59.80;;;;;;5052982;28;20651;-68
2022/11/07 00:43:18;;;;;;;3.42;1.80;;;16.70;60.70;;;;;;5050723;28;20178;-68
2022/11/07 00:45:44;;;;;;;3.40;1.67;;;16.70;59.90;;;;;;5052853;28;20259;-68
2022/11/07 00:48:09;;;;;;;3.10;1.73;;;16.70;60.00;;;;;;5052486;28;20706;-68
2022/11/07 00:50:35;;;;;;;2.60;1.80;;;16.70;60.00;;;;;;5052075;28;20200;-68
2022/11/07 00:53:00;;;;;;;2.15;1.75;;;16.70;60.00;;;;;;5052313;28;20236;-68
2022/11/07 00:55:26;;;;;;;3.20;1.80;;;16.70;60.10;;;;;;5052950;28;20258;-68
2022/11/07 00:57:51;;;;;;;3.10;1.98;;;16.70;60.10;;;;;;5052162;28;20265;-68
2022/11/07 01:00:17;;;;;;;3.83;1.73;;;16.60;60.00;;;;;;5052425;28;20266;-68
2022/11/07 01:02:42;;;;;;;5.13;2.03;;;16.60;60.10;;;;;;5052594;28;20277;-68
2022/11/07 01:05:11;;;;;;;2.67;1.60;;;16.60;60.10;;;;;;5051872;28;20250;-69
2022/11/07 01:07:40;;;;;;;3.38;2.05;;;16.60;60.20;;;;;;5052768;28;20204;-68
2022/11/07 01:10:06;;;;;;;2.83;1.73;;;16.60;60.20;;;;;;5052356;28;20224;-68
2022/11/07 01:12:33;;;;;;;3.35;1.80;;;16.60;60.30;;;;;;5051904;28;20270;-68
2022/11/07 01:14:58;;;;;;;3.65;2.25;;;16.60;60.30;;;;;;5052281;28;20183;-69
2022/11/07 01:17:24;;;;;;;2.33;2.03;;;16.60;61.20;;;;;;5052513;28;20314;-68
2022/11/07 01:19:49;;;;;;;3.15;1.65;;;16.60;60.40;;;;;;5052081;28;20270;-68
2022/11/07 01:22:15;;;;;;;2.88;2.05;;;16.60;60.40;;;;;;5052424;28;20262;-67
2022/11/07 01:24:40;;;;;;;2.15;1.85;;;16.60;60.40;;;;;;5052621;28;20200;-68
2022/11/07 01:27:06;;;;;;;2.55;1.60;;;16.60;60.50;;;;;;5051602;28;20172;-68
2022/11/07 01:29:31;;;;;;;4.28;1.70;;;16.50;60.50;;;;;;5052571;28;20183;-68
2022/11/07 01:31:57;;;;;;;3.28;1.65;;;16.50;60.50;;;;;;5052352;28;20577;-69
2022/11/07 01:34:25;;;;;;;2.47;1.50;;;16.50;60.50;;;;;;5051905;28;20210;-69
2022/11/07 01:36:52;;;;;;;3.50;2.00;;;16.50;60.50;;;;;;5052479;28;20229;-69
2022/11/07 01:39:18;;;;;;;2.95;1.67;;;16.50;60.60;;;;;;5051286;28;20533;-67
2022/11/07 01:41:43;;;;;;;2.95;1.85;;;16.50;60.60;;;;;;5052436;28;20173;-68
2022/11/07 01:44:09;;;;;;;3.53;1.88;;;16.50;60.60;;;;;;5051888;28;20179;-68
2022/11/07 01:46:43;;;;;;;1.88;1.30;;;16.50;60.60;;;;;;5051481;28;20168;-68
2022/11/07 01:49:13;;;;;;;3.80;1.67;;;16.50;60.70;;;;;;5052165;28;20187;-68
2022/11/07 01:51:43;;;;;;;2.80;1.83;;;16.50;61.60;;;;;;5051224;28;20175;-68
2022/11/07 01:54:09;;;;;;;2.85;2.00;;;16.50;60.80;;;;;;5049955;28;20567;-68
2022/11/07 01:56:35;;;;;;;3.67;1.80;;;16.50;60.80;;;;;;5037563;28;20182;-68
2022/11/07 01:59:01;;;;;;;2.88;2.03;;;16.50;60.90;;;;;;5038259;28;20192;-68
2022/11/07 02:01:27;;;;;;;3.88;1.88;;;16.50;60.90;;;;;;5054203;28;20176;-68
2022/11/07 02:03:52;;;;;;;2.85;1.75;;;16.50;60.90;;;;;;5055771;28;20633;-68
2022/11/07 02:06:50;;;;;;;3.67;2.13;;;16.40;60.90;;;;;;5054165;28;20171;-69
2022/11/07 02:09:15;;;;;;;3.05;1.63;;;16.40;60.90;;;;;;5048043;28;20191;-69
2022/11/07 02:11:41;;;;;;;3.45;1.75;;;16.40;60.90;;;;;;5055861;28;20183;-68
2022/11/07 02:14:06;;;;;;;4.55;2.30;;;16.40;61.00;;;;;;5055456;28;20218;-68
2022/11/07 02:16:34;;;;;;;3.08;2.05;;;16.40;60.90;;;;;;5054552;28;20218;-68
2022/11/07 02:18:59;;;;;;;2.78;2.00;;;16.40;61.00;;;;;;5037727;28;20229;-68
2022/11/07 02:21:40;;;;;;;2.63;1.63;;;16.40;61.00;;;;;;5037236;28;20175;-68
2022/11/07 02:24:06;;;;;;;1.70;1.55;;;16.40;61.00;;;;;;5054193;28;20225;-67
2022/11/07 02:26:32;;;;;;;4.07;2.03;;;16.40;61.00;;;;;;5055339;28;20175;-68
2022/11/07 02:28:57;;;;;;;2.90;1.58;;;16.40;61.10;;;;;;5036632;28;20183;-68
2022/11/07 02:31:23;;;;;;;4.82;1.75;;;16.40;61.10;;;;;;5037440;28;20175;-69
2022/11/07 02:33:48;;;;;;;2.72;1.50;;;16.30;61.10;;;;;;5055474;28;20215;-70
2022/11/07 02:36:18;;;;;;;4.60;2.15;;;16.40;61.10;;;;;;5054133;28;20685;-69
2022/11/07 02:38:44;;;;;;;2.95;1.70;;;16.40;61.20;;;;;;5037671;28;20175;-68
2022/11/07 02:41:15;;;;;;;2.28;1.90;;;16.40;61.20;;;;;;5037955;28;20221;-68
2022/11/07 02:43:43;;;;;;;2.47;1.90;;;16.40;61.30;;;;;;5053310;28;20265;-67
2022/11/07 02:46:09;;;;;;;2.70;1.58;;;16.40;61.30;;;;;;5053680;28;20183;-68
2022/11/07 02:48:46;;;;;;;3.80;1.55;;;16.40;61.30;;;;;;5055037;28;20222;-68
2022/11/07 02:51:12;;;;;;;3.80;1.63;;;16.30;61.30;;;;;;5053917;28;20713;-68
2022/11/07 02:53:37;;;;;;;3.35;1.90;;;16.30;61.30;;;;;;5054947;28;20301;-68
2022/11/07 02:56:03;;;;;;;2.45;2.10;;;16.30;61.30;;;;;;5054661;28;20175;-68
2022/11/07 02:58:29;;;;;;;3.15;1.55;;;16.30;61.30;;;;;;5054362;28;20622;-68
2022/11/07 03:00:54;;;;;;;3.47;1.60;;;16.30;61.40;;;;;;5054870;28;20163;-68
2022/11/07 03:03:20;;;;;;;2.55;1.60;;;16.30;61.30;;;;;;5054482;28;20198;-68
2022/11/07 03:05:45;;;;;;;2.13;1.50;;;16.30;61.40;;;;;;5052623;28;20618;-68
2022/11/07 03:08:11;;;;;;;2.72;1.42;;;16.30;61.40;;;;;;5054244;28;20171;-70
2022/11/07 03:10:36;;;;;;;3.28;1.80;;;16.30;61.40;;;;;;5053972;28;20171;-68
2022/11/07 03:13:02;;;;;;;3.25;1.73;;;16.30;61.40;;;;;;5054192;28;20198;-68
2022/11/07 03:15:27;;;;;;;3.95;1.48;;;16.30;61.50;;;;;;5054413;28;20175;-68
2022/11/07 03:17:53;;;;;;;3.00;1.90;;;16.30;61.50;;;;;;5053891;28;20178;-68
2022/11/07 03:20:18;;;;;;;3.75;1.58;;;16.30;61.60;;;;;;5054436;28;20220;-68
2022/11/07 03:22:46;;;;;;;4.45;2.17;;;16.30;61.60;;;;;;5054600;28;20182;-68
2022/11/07 03:25:11;;;;;;;3.47;1.80;;;16.30;61.60;;;;;;5053439;28;20202;-68
2022/11/07 03:27:45;;;;;;;5.35;1.95;;;16.30;61.60;;;;;;5054517;28;20174;-68
2022/11/07 03:30:11;;;;;;;4.25;2.03;;;16.30;61.70;;;;;;5054032;28;20175;-69
2022/11/07 03:32:36;;;;;;;2.92;1.80;;;16.30;61.70;;;;;;5053321;28;20511;-69
2022/11/07 03:35:02;;;;;;;3.45;1.63;;;16.30;61.70;;;;;;5053816;28;20573;-69
2022/11/07 03:37:27;;;;;;;2.38;1.67;;;16.20;61.60;;;;;;5054000;28;20186;-69
2022/11/07 03:39:53;;;;;;;3.60;1.45;;;16.20;61.60;;;;;;5053277;28;20269;-68
2022/11/07 03:42:18;;;;;;;3.97;1.50;;;16.20;61.60;;;;;;5053791;28;20261;-68
2022/11/07 03:44:44;;;;;;;3.55;1.80;;;16.20;61.60;;;;;;5053937;28;20170;-67
2022/11/07 03:47:09;;;;;;;4.18;1.88;;;16.20;61.70;;;;;;5052909;28;20216;-68
2022/11/07 03:49:35;;;;;;;2.80;1.50;;;16.20;61.70;;;;;;5053816;28;20266;-68
2022/11/07 03:52:00;;;;;;;4.97;1.80;;;16.20;61.70;;;;;;5053495;28;20689;-68
2022/11/07 03:54:26;;;;;;;3.33;2.08;;;16.30;61.80;;;;;;5052874;28;20211;-68
2022/11/07 03:56:51;;;;;;;2.63;1.67;;;16.20;61.70;;;;;;5053794;28;20270;-68
2022/11/07 03:59:17;;;;;;;3.75;1.80;;;16.20;61.80;;;;;;5053481;28;20179;-68
2022/11/07 04:01:43;;;;;;;3.58;1.88;;;16.20;61.80;;;;;;5052833;28;20170;-68
2022/11/07 04:04:09;;;;;;;2.40;1.60;;;16.20;61.80;;;;;;5053520;28;20187;-69
2022/11/07 04:06:34;;;;;;;4.60;1.70;;;16.20;61.90;;;;;;5053717;28;20175;-69
2022/11/07 04:09:00;;;;;;;4.18;1.90;;;16.20;61.90;;;;;;5052596;28;20175;-68
2022/11/07 04:19:38;;;;;;;2.20;1.90;;;16.20;61.90;;;;;;5053102;28;20182;-68
2022/11/07 04:22:04;;;;;;;3.15;1.67;;;16.20;62.00;;;;;;5052201;28;20195;-67
2022/11/07 04:24:30;;;;;;;2.70;1.80;;;16.20;62.00;;;;;;5053150;28;20193;-68
2022/11/07 04:29:39;;;;;;;2.75;2.03;;;16.20;62.00;;;;;;5052328;28;20601;-68
2022/11/07 04:32:05;;;;;;;3.60;2.03;;;16.20;62.10;;;;;;5052767;28;20168;-69
2022/11/07 04:34:30;;;;;;;2.13;1.65;;;16.20;62.10;;;;;;5052916;28;20260;-69
2022/11/07 04:36:56;;;;;;;3.95;2.13;;;16.20;62.10;;;;;;5052636;28;20213;-68
2022/11/07 04:39:21;;;;;;;3.13;1.85;;;16.20;62.10;;;;;;5052911;28;20229;-68
2022/11/07 04:41:47;;;;;;;3.63;1.58;;;16.20;62.20;;;;;;5053168;28;20171;-68
2022/11/07 04:44:13;;;;;;;4.78;2.40;;;16.10;62.10;;;;;;5052222;28;20175;-68
2022/11/07 04:46:38;;;;;;;3.65;1.75;;;16.20;62.20;;;;;;5053124;28;20171;-68
2022/11/07 04:49:04;;;;;;;2.55;1.73;;;16.10;62.20;;;;;;5052076;28;20175;-68
2022/11/07 04:51:29;;;;;;;3.50;1.92;;;16.10;62.20;;;;;;5052792;28;20634;-69
2022/11/07 04:53:55;;;;;;;3.90;2.00;;;16.10;62.20;;;;;;5051511;28;20207;-68
2022/11/07 04:56:20;;;;;;;3.45;1.90;;;16.20;62.30;;;;;;5052035;28;20183;-68
2022/11/07 04:58:46;;;;;;;4.30;2.17;;;16.10;62.30;;;;;;5052889;28;20167;-68
2022/11/07 05:01:11;;;;;;;2.35;1.60;;;16.10;62.30;;;;;;5052649;28;20171;-69
2022/11/07 05:03:37;;;;;;;6.47;1.88;;;16.10;63.20;;;;;;5050996;28;20174;-70
2022/11/07 05:06:03;;;;;;;3.40;1.67;;;16.10;62.30;;;;;;5052370;28;20178;-70
2022/11/07 05:08:32;;;;;;;4.28;1.83;;;16.10;62.40;;;;;;5052561;28;20190;-70
2022/11/07 05:10:57;;;;;;;3.33;1.90;;;16.10;62.40;;;;;;5050685;28;20254;-69
2022/11/07 05:13:23;;;;;;;4.07;1.70;;;16.10;62.40;;;;;;5052700;28;20345;-69
2022/11/07 05:15:48;;;;;;;3.45;1.77;;;16.10;62.50;;;;;;5052583;28;20364;-69
2022/11/07 05:18:14;;;;;;;4.50;1.92;;;16.10;62.50;;;;;;5050489;28;20281;-68
2022/11/07 05:20:39;;;;;;;2.42;1.70;;;16.10;62.50;;;;;;5052651;28;20171;-69
2022/11/07 05:23:11;;;;;;;2.67;1.50;;;16.10;62.50;;;;;;5052267;28;20183;-69
2022/11/07 05:25:40;;;;;;;4.68;1.90;;;16.10;62.50;;;;;;5052033;28;20179;-69
2022/11/07 05:28:07;;;;;;;4.07;1.88;;;16.10;62.50;;;;;;5052114;28;20703;-70
2022/11/07 05:30:32;;;;;;;3.47;2.03;;;16.10;62.50;;;;;;5053109;28;20183;-70
2022/11/07 05:32:58;;;;;;;6.57;2.08;;;16.10;62.60;;;;;;5055405;28;20324;-71
2022/11/07 05:35:23;;;;;;;4.47;2.15;;;16.10;62.60;;;;;;5056378;28;20175;-71
2022/11/07 05:37:49;;;;;;;4.30;2.28;;;16.00;62.50;;;;;;5056583;28;20171;-70
2022/11/07 05:40:14;;;;;;;4.78;1.83;;;16.10;62.70;;;;;;5055385;28;20257;-69
2022/11/07 05:42:40;;;;;;;4.97;2.17;;;16.10;62.60;;;;;;5056360;28;20588;-68
2022/11/07 05:45:06;;;;;;;3.40;1.83;;;16.10;62.70;;;;;;5056155;28;20233;-69
2022/11/07 05:47:32;;;;;;;4.72;2.00;;;16.00;62.70;;;;;;5055620;28;20708;-69
2022/11/07 05:49:57;;;;;;;3.80;2.15;;;16.10;62.80;;;;;;5055882;28;20267;-70
2022/11/07 05:52:23;;;;;;;4.10;1.73;;;16.10;62.80;;;;;;5055589;28;20266;-70
2022/11/07 05:54:48;;;;;;;5.45;2.15;;;16.00;62.70;;;;;;5056196;28;20306;-69
2022/11/07 05:57:14;;;;;;;6.15;2.33;;;16.00;62.80;;;;;;5055905;28;20196;-69
2022/11/07 05:59:39;;;;;;;3.58;1.70;;;16.00;62.70;;;;;;5055325;28;20277;-69
2022/11/07 06:02:05;;;;;;;4.70;2.22;;;16.00;62.70;;;;;;5055724;28;20281;-69
2022/11/07 06:04:30;;;;;;;4.82;2.00;;;16.00;62.70;;;;;;5055817;28;20653;-70
2022/11/07 06:06:56;;;;;;;3.53;1.98;;;16.00;62.70;;;;;;5055110;28;20265;-70
2022/11/07 06:09:21;;;;;;;3.92;1.58;;;16.00;62.80;;;;;;5055891;28;20270;-70
2022/11/07 06:11:47;;;;;;;2.85;1.88;;;16.00;62.80;;;;;;5055946;28;20175;-69
2022/11/07 06:14:12;;;;;;;5.50;2.22;;;16.00;62.80;;;;;;5054683;28;20549;-69
2022/11/07 06:16:38;;;;;;;5.47;2.25;;;16.00;62.80;;;;;;5055441;28;20225;-69
2022/11/07 06:19:03;;;;;;;6.47;2.63;;;16.00;62.80;;;;;;5055321;28;20179;-68
2022/11/07 06:21:29;;;;;;;6.13;2.65;;;16.00;62.80;;;;;;5054774;28;20183;-68
2022/11/07 06:23:55;;;;;;;5.65;2.35;;;16.00;62.80;;;;;;5055705;28;20630;-69
2022/11/07 06:26:20;;;;;;;4.90;2.28;;;16.00;62.80;;;;;;5053926;28;20642;-69
2022/11/07 06:28:46;;;;;;;5.47;2.67;;;16.00;62.90;;;;;;5054759;28;20175;-70
2022/11/07 06:31:12;;;;;;;6.68;2.15;;;16.00;62.90;;;;;;5055049;28;20171;-69
2022/11/07 06:33:38;;;;;;;4.05;2.03;;;16.00;62.90;;;;;;5055208;28;20298;-70
2022/11/07 06:36:08;;;;;;;3.67;2.13;;;16.00;63.00;;;;;;5054163;28;20258;-70
2022/11/07 06:38:34;;;;;;;3.85;1.85;;;16.00;62.90;;;;;;5055313;28;20264;-70
2022/11/07 06:41:05;;;;;;;5.45;2.00;;;16.00;63.00;;;;;;5054567;28;20198;-70
2022/11/07 06:43:31;;;;;;;4.97;2.33;;;16.00;63.00;;;;;;5054486;28;20179;-69
2022/11/07 06:45:56;;;;;;;5.55;2.50;;;16.00;63.00;;;;;;5055144;28;20221;-69
2022/11/07 06:48:22;;;;;;;3.58;1.88;;;16.00;63.00;;;;;;5055134;28;20564;-69
2022/11/07 06:50:54;;;;;;;3.55;2.13;;;16.00;63.00;;;;;;5054484;28;20262;-69
2022/11/07 06:53:19;;;;;;;4.22;2.00;;;15.90;63.00;;;;;;5053678;28;20292;-70
2022/11/07 06:55:45;;;;;;;5.60;2.63;;;16.00;63.10;;;;;;5054086;28;20626;-69
2022/11/07 06:58:10;;;;;;;5.40;2.22;;;16.00;63.10;;;;;;5054371;28;20176;-69
2022/11/07 07:00:36;;;;;;;3.50;1.98;;;16.00;63.10;;;;;;5054861;28;20224;-68
2022/11/07 07:03:02;;;;;;;5.93;1.88;;;16.00;63.10;;;;;;5053653;28;20217;-68
2022/11/07 07:05:27;;;;;;;5.28;2.10;;;16.00;63.10;;;;;;5054857;28;20183;-69
2022/11/07 07:07:54;;;;;;;3.28;1.90;;;16.00;63.10;;;;;;5054872;28;20167;-68
2022/11/07 07:10:19;;;;;;;4.10;2.08;;;16.00;63.20;;;;;;5053868;28;20186;-68
2022/11/07 07:12:45;;;;;;;6.57;2.13;;;16.10;63.10;;;;;;5054596;28;20181;-68
2022/11/07 07:15:10;;;;;;;4.78;2.08;;;16.20;63.00;;;;;;5054225;28;20546;-68
2022/11/07 07:17:36;;;;;;;5.03;2.10;;;16.30;62.90;;;;;;5053684;28;20226;-68
2022/11/07 07:20:03;;;;;;;4.32;1.92;;;16.40;62.90;;;;;;5054308;28;20233;-68
2022/11/07 07:22:28;;;;;;;3.80;1.90;;;16.50;62.60;;;;;;5054495;28;20175;-68
2022/11/07 07:24:54;;;;;;;5.28;1.85;;;16.70;62.20;;;;;;5053773;28;20516;-68
2022/11/07 07:27:19;;;;;;;4.03;1.98;;;16.90;61.80;;;;;;5054240;28;20626;-69
2022/11/07 07:29:46;;;;;;;3.53;1.77;;;17.10;61.30;;;;;;5054273;28;20190;-69
2022/11/07 07:32:11;;;;;;;7.05;1.80;;;17.40;60.40;;;;;;5053202;28;20190;-70
2022/11/07 07:34:37;;;;;;;5.05;2.33;;;17.60;59.60;;;;;;5054346;28;20214;-69
2022/11/07 07:37:02;;;;;;;4.53;1.95;;;17.80;59.20;;;;;;5054033;28;20255;-68
2022/11/07 07:39:28;;;;;;;4.15;1.90;;;18.00;58.80;;;;;;5053558;28;20286;-68
2022/11/07 07:41:53;;;;;;;4.60;1.80;;;18.10;58.40;;;;;;5054128;28;20254;-68
2022/11/07 07:44:19;;;;;;;5.57;1.98;;;18.30;58.20;;;;;;5053784;28;20289;-67
2022/11/07 07:46:44;;;;;;;3.58;2.03;;;18.40;57.90;;;;;;5053175;28;20293;-67
2022/11/07 07:49:10;;;;;;;4.05;1.92;;;18.40;57.60;;;;;;5053835;28;20717;-68
2022/11/07 07:51:35;;;;;;;4.05;1.60;;;18.50;57.50;;;;;;5053713;28;20174;-68
2022/11/07 07:54:01;;;;;;;4.18;1.85;;;18.60;57.30;;;;;;5052106;28;20294;-69
2022/11/07 07:56:26;;;;;;;6.53;2.40;;;18.60;57.20;;;;;;5053791;28;20171;-68
2022/11/07 07:58:52;;;;;;;4.18;1.80;;;18.60;57.20;;;;;;5053551;28;20513;-69
2022/11/07 08:01:18;;;;;;;5.07;1.95;;;18.50;57.30;;;;;;5052925;28;20174;-68
2022/11/07 08:03:43;;;;;;;4.70;1.65;;;18.40;57.40;;;;;;5053792;28;20176;-69
2022/11/07 08:06:09;;;;;;;5.88;1.85;;;18.30;57.60;;;;;;5052670;28;20254;-69
2022/11/07 08:08:34;;;;;;;4.70;1.58;;;18.30;57.80;;;;;;5035960;28;20171;-69
2022/11/07 08:11:05;;;;;;;4.03;1.83;;;18.30;57.90;;;;;;5053381;28;20183;-69
2022/11/07 08:13:30;;;;;;;3.33;1.70;;;18.30;57.90;;;;;;5052687;28;20199;-69
2022/11/07 08:15:56;;;;;;;4.85;1.80;;;18.30;58.50;;;;;;5053152;28;20309;-68
2022/11/07 08:18:22;;;;;;;5.22;2.20;;;18.30;57.90;;;;;;5053565;28;20210;-69
2022/11/07 08:20:51;;;;;;;5.07;1.73;;;18.40;57.90;;;;;;5052512;28;20281;-68
2022/11/07 08:23:17;;;;;;;6.78;1.77;;;18.30;57.70;;;;;;5053007;28;20179;-69
2022/11/07 08:25:51;;;;;;;5.47;2.25;;;18.30;57.70;;;;;;5053467;28;20228;-69
2022/11/07 08:28:18;;;;;;;4.28;2.13;;;18.20;57.80;;;;;;5052135;28;20174;-68
2022/11/07 08:30:43;;;;;;;4.30;1.80;;;18.20;58.00;;;;;;5053425;28;20179;-69
2022/11/07 08:33:09;;;;;;;3.80;2.15;;;18.20;58.00;;;;;;5052986;28;20265;-70
2022/11/07 08:35:34;;;;;;;3.42;1.58;;;18.20;58.10;;;;;;5052360;28;20171;-70
2022/11/07 08:38:00;;;;;;;3.92;1.85;;;18.20;58.10;;;;;;5052675;28;20179;-69
2022/11/07 08:40:25;;;;;;;4.05;1.90;;;18.20;58.10;;;;;;5053076;28;20193;-68
2022/11/07 08:42:51;;;;;;;5.00;2.28;;;18.20;58.10;;;;;;5052205;28;20570;-69
2022/11/07 08:45:16;;;;;;;3.72;1.80;;;18.30;58.10;;;;;;5052598;28;20586;-68
2022/11/07 08:47:42;;;;;;;3.78;1.63;;;18.30;58.10;;;;;;5053088;28;20183;-70
2022/11/07 08:50:08;;;;;;;5.00;2.28;;;18.30;58.00;;;;;;5052081;28;20186;-69
2022/11/07 08:52:34;;;;;;;5.32;2.42;;;18.30;58.20;;;;;;5052836;28;20182;-69
2022/11/07 08:55:01;;;;;;;3.38;1.80;;;18.20;58.10;;;;;;5052319;28;20214;-70
2022/11/07 08:57:26;;;;;;;5.88;2.03;;;18.30;58.20;;;;;;5051871;28;20174;-69
2022/11/07 08:59:52;;;;;;;5.03;2.00;;;18.30;58.30;;;;;;5052980;28;20564;-69
2022/11/07 09:02:17;;;;;;;3.55;1.65;;;18.30;58.20;;;;;;5051804;28;20249;-70
2022/11/07 09:04:43;;;;;;;5.03;1.90;;;18.30;58.30;;;;;;5052695;28;20183;-70
2022/11/07 09:07:08;;;;;;;6.03;1.73;;;18.30;58.30;;;;;;5052495;28;20171;-70
2022/11/07 09:09:34;;;;;;;6.32;1.98;;;18.30;58.40;;;;;;5052037;28;20179;-70
2022/11/07 09:11:59;;;;;;;5.22;2.08;;;18.20;58.50;;;;;;5052434;28;20266;-69
2022/11/07 09:14:26;;;;;;;5.15;1.77;;;18.20;58.70;;;;;;5052456;28;20306;-69
2022/11/07 09:16:51;;;;;;;5.35;2.00;;;18.10;58.80;;;;;;5051733;28;20227;-68
2022/11/07 09:19:17;;;;;;;3.15;1.75;;;18.10;58.90;;;;;;5052429;28;20221;-69
2022/11/07 09:21:44;;;;;;;7.25;2.15;;;18.10;58.80;;;;;;5052756;28;20213;-68
2022/11/07 09:24:09;;;;;;;6.10;1.50;;;18.10;59.00;;;;;;5051642;28;20182;-68
2022/11/07 09:26:35;;;;;;;6.72;2.28;;;18.10;59.00;;;;;;5052602;28;20171;-69
2022/11/07 09:29:00;;;;;;;4.53;1.80;;;18.00;59.00;;;;;;5052337;28;20178;-69
2022/11/07 09:31:26;;;;;;;4.07;1.60;;;18.00;59.00;;;;;;5051942;28;20178;-70
2022/11/07 09:33:52;;;;;;;5.97;1.75;;;18.00;59.10;;;;;;5052774;28;20222;-72
2022/11/07 09:36:17;;;;;;;4.28;1.50;;;18.00;59.20;;;;;;5051966;28;20167;-69
2022/11/07 09:38:43;;;;;;;3.88;1.83;;;17.90;59.30;;;;;;5051693;28;20171;-69
2022/11/07 09:41:08;;;;;;;3.17;1.45;;;17.90;59.50;;;;;;5052139;28;20170;-68
2022/11/07 09:43:55;;;;;;;3.78;1.70;;;17.90;59.50;;;;;;5052263;28;20172;-68
2022/11/07 09:46:50;;;;;;;3.75;1.73;;;17.90;59.40;;;;;;5051545;28;20182;-69
2022/11/07 09:49:19;;;;;;;6.05;1.85;;;17.80;59.40;;;;;;5050849;28;20642;-68
2022/11/07 09:51:51;;;;;;;4.88;1.80;;;17.80;59.50;;;;;;5050358;28;20873;-69
2022/11/07 09:54:22;;;;;;;5.85;2.00;;;17.80;59.50;;;;;;5051045;28;20214;-69
2022/11/07 09:56:48;;;;;;;4.53;2.25;;;17.80;59.60;;;;;;5051273;28;20211;-68
2022/11/07 09:59:31;;;;;;;7.40;2.35;;;17.80;59.70;;;;;;5051338;28;20209;-69
2022/11/07 10:01:57;;;;;;;5.07;2.10;;;17.80;59.70;;;;;;5051852;28;20167;-69
2022/11/07 10:04:22;;;;;;;3.83;1.77;;;17.80;59.70;;;;;;5051061;28;20179;-71
2022/11/07 10:06:57;;;;;;;3.83;1.90;;;17.80;59.70;;;;;;5033641;28;20175;-71
2022/11/07 10:09:30;;;;;;;5.20;2.38;;;17.70;59.70;;;;;;5034765;28;20208;-71
2022/11/07 10:12:48;;;;;;;4.63;2.35;;;17.70;59.70;;;;;;5051133;28;20179;-70
2022/11/07 10:15:31;;;;;;;6.07;2.28;;;17.80;59.80;;;;;;5033950;28;20248;-70
2022/11/07 10:18:08;;;;;;;3.67;1.90;;;17.70;59.90;;;;;;5039756;28;20190;-70
2022/11/07 10:21:02;;;;;;;4.18;1.88;;;17.70;60.00;;;;;;5054873;28;20640;-69
2022/11/07 10:23:50;;;;;;;5.07;1.90;;;17.70;59.90;;;;;;5054792;28;20221;-70
2022/11/07 10:26:18;;;;;;;3.85;1.98;;;17.70;59.90;;;;;;5054283;28;20197;-70
2022/11/07 10:28:46;;;;;;;6.05;2.28;;;17.70;59.90;;;;;;5053728;28;20253;-71
2022/11/07 10:31:12;;;;;;;4.55;2.13;;;17.70;59.90;;;;;;5053888;28;20183;-70
2022/11/07 10:33:44;;;;;;;5.00;2.08;;;17.60;60.00;;;;;;5053738;28;20226;-71
2022/11/07 10:36:17;;;;;;;5.30;2.05;;;17.70;60.00;;;;;;5055082;28;20609;-70
2022/11/07 10:38:42;;;;;;;6.53;2.35;;;17.70;60.10;;;;;;5054185;28;20191;-70
2022/11/07 10:41:28;;;;;;;5.65;2.10;;;17.70;60.20;;;;;;5053134;28;20175;-69
2022/11/07 10:44:04;;;;;;;3.60;1.65;;;17.70;60.10;;;;;;5055205;28;20175;-70
2022/11/07 10:46:42;;;;;;;5.53;2.22;;;17.70;60.10;;;;;;5055304;28;20262;-70
2022/11/07 10:49:22;;;;;;;4.38;2.03;;;17.70;60.00;;;;;;5053174;28;20179;-69
2022/11/07 10:51:47;;;;;;;3.78;1.98;;;17.70;60.10;;;;;;5055075;28;20289;-70
2022/11/07 10:54:19;;;;;;;4.95;1.80;;;17.70;60.20;;;;;;5054524;28;20269;-71
2022/11/07 10:56:58;;;;;;;5.00;2.40;;;17.70;60.20;;;;;;5054163;28;20656;-70
2022/11/07 10:59:25;;;;;;;4.97;2.13;;;17.60;60.40;;;;;;5053115;28;20228;-67
2022/11/07 11:01:53;;;;;;;6.65;2.47;;;17.70;60.40;;;;;;5052484;28;20653;-68
2022/11/07 11:04:31;;;;;;;7.32;1.95;;;17.80;60.40;;;;;;5053355;28;20262;-72
2022/11/07 11:07:02;;;;;;;7.65;2.50;;;17.70;60.30;;;;;;5053645;28;20224;-72
2022/11/07 11:09:34;;;;;;;5.40;1.88;;;17.80;60.30;;;;;;5053786;28;20175;-71
2022/11/07 11:12:10;;;;;;;7.47;2.13;;;17.70;60.30;;;;;;5054323;28;20183;-70
2022/11/07 11:14:35;;;;;;;4.43;2.15;;;17.80;60.30;;;;;;5052998;28;20221;-70
2022/11/07 11:17:01;;;;;;;4.82;2.25;;;17.70;60.30;;;;;;5052118;28;20310;-67
2022/11/07 11:19:31;;;;;;;6.18;2.05;;;17.80;60.40;;;;;;5054855;28;20642;-70
2022/11/07 11:21:57;;;;;;;6.10;2.03;;;17.80;60.40;;;;;;5053289;28;20625;-69
2022/11/07 11:24:38;;;;;;;4.13;2.05;;;17.80;60.40;;;;;;5053734;28;20175;-69
2022/11/07 11:27:18;;;;;;;6.07;2.17;;;17.80;60.40;;;;;;5053372;28;20222;-70
2022/11/07 11:30:06;;;;;;;7.05;2.30;;;17.80;60.40;;;;;;5052954;28;20186;-68
2022/11/07 11:32:38;;;;;;;6.07;2.10;;;17.80;60.40;;;;;;5053360;28;20171;-68
2022/11/07 11:35:12;;;;;;;16.02;2.58;;;17.80;60.40;;;;;;5052658;28;20241;-68
2022/11/07 11:37:40;;;;;;;6.07;1.95;;;17.80;61.40;;;;;;5052358;28;20218;-66
2022/11/07 11:40:10;;;;;;;3.80;2.03;;;17.80;60.80;;;;;;5052709;28;20268;-66
2022/11/07 11:42:58;;;;;;;7.45;2.13;;;17.80;60.80;;;;;;5054167;28;20530;-68
2022/11/07 11:45:26;;;;;;;7.80;2.50;;;17.90;60.70;;;;;;5035555;28;20771;-68
2022/11/07 11:48:08;;;;;;;5.55;1.75;;;17.80;60.50;;;;;;5054042;28;20174;-69
2022/11/07 11:50:48;;;;;;;5.47;1.67;;;17.90;60.60;;;;;;5053941;28;20232;-69
2022/11/07 11:53:15;;;;;;;9.20;1.83;;;17.90;60.60;;;;;;5035831;28;20210;-69
2022/11/07 11:55:46;;;;;;;6.15;1.85;;;17.90;60.50;;;;;;5053951;28;20202;-68
2022/11/07 11:58:37;;;;;;;5.50;1.95;;;17.90;60.60;;;;;;5035454;28;20194;-69
2022/11/07 12:01:10;;;;;;;5.13;1.88;;;17.90;60.60;;;;;;5043682;28;20220;-69
2022/11/07 12:04:10;;;;;;;6.63;2.08;;;17.90;60.80;;;;;;5036622;28;20242;-69
2022/11/07 12:06:38;;;;;;;4.60;1.80;;;18.00;60.80;;;;;;5052802;28;20182;-69
2022/11/07 12:09:13;;;;;;;3.60;1.85;;;18.00;60.80;;;;;;5053323;28;20171;-66
2022/11/07 12:11:55;;;;;;;4.03;1.85;;;18.00;60.70;;;;;;5036265;28;20170;-66
2022/11/07 12:14:26;;;;;;;4.57;1.67;;;18.00;60.60;;;;;;5051492;28;20302;-66
2022/11/07 12:16:57;;;;;;;5.43;1.90;;;17.90;60.70;;;;;;5053213;28;20218;-67
2022/11/07 12:19:31;;;;;;;4.40;2.03;;;17.80;60.60;;;;;;5051299;28;20709;-66
2022/11/07 12:22:06;;;;;;;5.70;1.90;;;17.80;60.70;;;;;;5053702;28;20171;-66
2022/11/07 12:24:52;;;;;;;3.40;1.90;;;17.80;60.80;;;;;;5053409;28;20178;-66
2022/11/07 12:27:30;;;;;;;8.93;2.17;;;17.80;60.80;;;;;;5048038;28;20681;-66
2022/11/07 12:30:04;;;;;;;5.10;2.13;;;17.80;60.80;;;;;;5053140;28;20233;-67
2022/11/07 12:32:35;;;;;;;6.43;2.30;;;17.80;60.90;;;;;;5053279;28;20183;-67
2022/11/07 12:35:34;;;;;;;8.05;2.15;;;17.70;61.00;;;;;;5051050;28;20300;-66
2022/11/07 12:38:15;;;;;;;6.15;2.63;;;17.80;61.10;;;;;;5051550;28;20699;-66
2022/11/07 12:40:47;;;;;;;6.25;2.17;;;17.70;61.10;;;;;;5034910;28;20179;-66
2022/11/07 12:43:35;;;;;;;5.30;2.13;;;17.70;61.20;;;;;;5051550;28;20178;-68
2022/11/07 12:46:20;;;;;;;6.43;2.33;;;17.60;61.20;;;;;;5051477;28;20182;-66
2022/11/07 12:49:27;;;;;;;7.93;2.42;;;17.60;61.20;;;;;;5035787;28;20507;-66
2022/11/07 12:52:14;;;;;;;5.28;2.33;;;17.60;61.30;;;;;;5050352;28;20265;-65
2022/11/07 12:54:42;;;;;;;7.05;2.60;;;17.60;61.50;;;;;;5050977;28;20223;-66
2022/11/07 12:57:20;;;;;;;4.13;2.08;;;17.70;61.50;;;;;;5052540;28;20194;-67
2022/11/07 12:59:56;;;;;;;7.72;2.35;;;17.60;61.30;;;;;;5035518;28;20179;-66
2022/11/07 13:02:33;;;;;;;7.25;2.47;;;17.60;61.20;;;;;;5050767;28;20181;-66
2022/11/07 13:05:08;;;;;;;5.47;2.20;;;17.60;61.20;;;;;;5052679;28;20178;-66
2022/11/07 13:07:42;;;;;;;4.80;2.60;;;17.60;61.20;;;;;;5051527;28;20171;-66